KOQT METAR and TAF weather

Enter ICAO airport designator
Station Type Date Time Source
KOQT METAR 2018/09/20 17:53 UTC NOAA

KOQT 201753Z AUTO 00000KT 10SM FEW036 31/23 A3014 RMK AO2 SLP189 T03110228 10311 20211 58015 $


Station Type Date Time Source
KOQT Decoded METAR 2018/09/20 17:53 UTC NOAA

OAK RIDGE, TN, United States (KOQT) 36-01N 84-14W
Sep 20, 2018 - 01:53 PM EDT / 2018.09.20 1753 UTC
Wind: Calm:0
Visibility: 10 mile(s):0
Sky conditions: mostly clear
Temperature: 88.0 F (31.1 C)
Heat index: 95.5 F (35.3 C):1
Dew Point: 73.0 F (22.8 C)
Relative Humidity: 61%
Pressure (altimeter): 30.14 in. Hg (1020 hPa)
Pressure tendency: 0.04 inches (1.5 hPa) lower than three hours ago
ob: KOQT 201753Z AUTO 00000KT 10SM FEW036 31/23 A3014 RMK AO2 SLP189 T03110228 10311 20211 58015
cycle: 18

Station Type Date Time Source
KOQT TAF UTC NOAA

Error!


Example: see airport list